createdAt,value
2023-04-02T00:00:11.001Z,89.29
2023-04-02T00:03:10.439Z,89.30
2023-04-02T00:05:51.025Z,89.47
2023-04-02T00:08:23.786Z,89.51
2023-04-02T00:10:59.160Z,89.49
2023-04-02T00:13:45.501Z,89.90
2023-04-02T00:16:24.540Z,89.29
2023-04-02T00:18:56.245Z,89.14
2023-04-02T00:21:31.062Z,88.77
2023-04-02T00:24:11.157Z,89.32
2023-04-02T00:26:45.526Z,88.65
2023-04-02T00:29:15.667Z,88.40
2023-04-02T00:31:51.197Z,88.75
2023-04-02T00:34:31.957Z,88.63
2023-04-02T00:37:00.045Z,88.57
2023-04-02T00:39:33.124Z,88.40
2023-04-02T00:42:06.871Z,88.72
2023-04-02T00:44:42.723Z,88.13
2023-04-02T00:47:26.914Z,88.26
2023-04-02T00:50:22.070Z,88.24
2023-04-02T00:52:53.784Z,88.46
2023-04-02T00:55:39.244Z,88.52
2023-04-02T00:58:26.626Z,88.33
2023-04-02T01:00:54.483Z,88.16
2023-04-02T01:03:28.693Z,88.68
2023-04-02T01:06:18.784Z,88.10
2023-04-02T01:09:15.964Z,88.21
2023-04-02T01:12:03.179Z,88.47
2023-04-02T01:15:03.773Z,88.36
2023-04-02T01:18:07.970Z,88.07
2023-04-02T01:20:51.891Z,88.49
2023-04-02T01:23:52.752Z,88.68
2023-04-02T01:26:41.803Z,88.87
2023-04-02T01:29:24.981Z,89.16
2023-04-02T01:31:58.850Z,88.57
2023-04-02T01:34:28.682Z,88.53
2023-04-02T01:37:27.388Z,88.72
2023-04-02T01:40:36.460Z,88.22
2023-04-02T01:43:35.820Z,88.39
2023-04-02T01:46:33.258Z,88.49
2023-04-02T01:49:16.092Z,88.54
2023-04-02T01:51:51.643Z,88.52
2023-04-02T01:54:22.214Z,88.30
2023-04-02T01:56:51.531Z,88.50
2023-04-02T01:59:23.127Z,88.19
2023-04-02T02:02:13.596Z,88.04
2023-04-02T02:04:42.319Z,87.94
2023-04-02T02:07:16.494Z,88.26
2023-04-02T02:09:48.592Z,87.72
2023-04-02T02:12:16.502Z,87.73
2023-04-02T02:14:52.506Z,87.62
2023-04-02T02:17:34.338Z,88.07
2023-04-02T02:20:10.929Z,88.03
2023-04-02T02:22:48.398Z,87.75
2023-04-02T02:25:21.593Z,87.56
2023-04-02T02:28:23.174Z,87.51
2023-04-02T02:30:58.884Z,87.44
2023-04-02T02:33:34.685Z,87.11
2023-04-02T02:36:15.029Z,87.28
2023-04-02T02:38:50.440Z,86.99
2023-04-02T02:41:41.614Z,87.76
2023-04-02T02:44:09.779Z,87.22
2023-04-02T02:46:52.758Z,87.24
2023-04-02T02:49:28.676Z,87.33
2023-04-02T02:52:09.198Z,87.29
2023-04-02T02:54:52.487Z,87.31
2023-04-02T02:57:30.053Z,87.56
2023-04-02T03:00:01.536Z,86.78
2023-04-02T03:02:36.104Z,85.89
2023-04-02T03:05:07.407Z,85.41
2023-04-02T03:07:37.297Z,85.33
2023-04-02T03:10:34.174Z,85.37
2023-04-02T03:13:22.927Z,85.87
2023-04-02T03:16:18.782Z,86.77
2023-04-02T03:19:00.114Z,86.21
2023-04-02T03:21:39.580Z,86.09
2023-04-02T03:24:54.630Z,86.49
2023-04-02T03:27:31.181Z,84.76
2023-04-02T03:30:46.425Z,84.39
2023-04-02T03:33:25.219Z,84.80
2023-04-02T03:36:31.030Z,84.40
2023-04-02T03:39:28.644Z,84.37
2023-04-02T03:42:16.375Z,84.41
2023-04-02T03:44:56.059Z,84.02
2023-04-02T03:47:45.190Z,83.68
2023-04-02T03:50:28.745Z,83.45
2023-04-02T03:53:03.074Z,84.33
2023-04-02T03:55:37.017Z,84.04
2023-04-02T03:58:38.835Z,83.98
2023-04-02T04:01:27.370Z,84.02
2023-04-02T04:04:06.632Z,83.47
2023-04-02T04:06:42.899Z,83.25
2023-04-02T04:09:36.322Z,82.65
2023-04-02T04:12:31.478Z,82.60
2023-04-02T04:15:25.565Z,82.02
2023-04-02T04:18:10.376Z,81.86
2023-04-02T04:20:46.146Z,82.33
2023-04-02T04:23:30.713Z,82.44
2023-04-02T04:26:19.777Z,82.55
2023-04-02T04:29:26.152Z,82.28
2023-04-02T04:31:58.885Z,81.87
2023-04-02T04:34:46.857Z,82.08
2023-04-02T04:37:41.044Z,81.39
2023-04-02T04:40:19.787Z,80.71
2023-04-02T04:42:53.512Z,80.64
2023-04-02T04:45:49.944Z,80.44
2023-04-02T04:48:54.158Z,80.07
2023-04-02T04:51:35.870Z,80.40
2023-04-02T04:54:04.009Z,80.24
2023-04-02T04:56:32.948Z,80.73
2023-04-02T04:59:27.317Z,81.17
2023-04-02T05:02:06.841Z,81.26
2023-04-02T05:04:41.427Z,81.77
2023-04-02T05:07:32.597Z,81.61
2023-04-02T05:10:24.708Z,81.40
2023-04-02T05:13:01.778Z,81.35
2023-04-02T05:15:49.958Z,81.23
2023-04-02T05:18:34.692Z,81.22
2023-04-02T05:21:26.281Z,81.38
2023-04-02T05:24:43.544Z,81.58
2023-04-02T05:27:36.451Z,81.28
2023-04-02T05:30:36.906Z,81.00
2023-04-02T05:33:22.091Z,81.28
2023-04-02T05:36:11.657Z,81.42
2023-04-02T05:38:48.963Z,81.74
2023-04-02T05:41:36.579Z,82.05
2023-04-02T05:44:58.293Z,81.54
2023-04-02T05:47:31.197Z,81.47
2023-04-02T05:50:09.512Z,80.76
2023-04-02T05:52:50.301Z,80.37
2023-04-02T05:55:39.668Z,79.09
2023-04-02T05:58:37.310Z,78.89
2023-04-02T06:01:53.579Z,78.08
2023-04-02T06:04:42.288Z,78.05
2023-04-02T06:07:18.070Z,78.62
2023-04-02T06:10:27.902Z,77.85
2023-04-02T06:13:07.154Z,77.14
2023-04-02T06:15:39.295Z,77.93
2023-04-02T06:18:35.618Z,78.26
2023-04-02T06:21:05.446Z,78.29
2023-04-02T06:23:51.368Z,78.00
2023-04-02T06:26:36.165Z,78.17
2023-04-02T06:29:12.534Z,78.81
2023-04-02T06:31:52.084Z,77.40
2023-04-02T06:34:25.859Z,77.68
2023-04-02T06:37:11.634Z,77.82
2023-04-02T06:39:39.486Z,78.02
2023-04-02T06:42:19.442Z,78.14
2023-04-02T06:45:21.047Z,77.97
2023-04-02T06:48:17.660Z,77.71
2023-04-02T06:51:10.418Z,78.04
2023-04-02T06:53:45.640Z,78.34
2023-04-02T06:56:46.097Z,77.85
2023-04-02T06:59:19.009Z,77.53
2023-04-02T07:02:00.460Z,78.07
2023-04-02T07:04:31.600Z,78.11
2023-04-02T07:07:03.034Z,78.34
2023-04-02T07:09:34.375Z,77.28
2023-04-02T07:12:12.639Z,77.09
2023-04-02T07:14:40.861Z,77.79
2023-04-02T07:17:17.752Z,77.14
2023-04-02T07:19:49.425Z,77.38
2023-04-02T07:22:20.771Z,77.95
2023-04-02T07:24:56.182Z,78.24
2023-04-02T07:27:23.968Z,76.90
2023-04-02T07:29:51.802Z,77.52
2023-04-02T07:32:19.846Z,76.96
2023-04-02T07:34:48.893Z,76.63
2023-04-02T07:37:17.048Z,77.05
2023-04-02T07:39:44.838Z,77.35
2023-04-02T07:42:12.953Z,77.37
2023-04-02T07:44:41.079Z,76.61
2023-04-02T07:47:10.528Z,76.24
2023-04-02T07:49:38.702Z,76.23
2023-04-02T07:52:06.886Z,76.12
2023-04-02T07:54:35.894Z,76.04
2023-04-02T07:57:04.041Z,76.26
2023-04-02T07:59:32.008Z,76.76
2023-04-02T08:01:59.915Z,76.44
2023-04-02T08:04:28.163Z,76.49
2023-04-02T08:06:56.076Z,76.58
2023-04-02T08:09:24.061Z,76.88
2023-04-02T08:11:51.871Z,76.65
2023-04-02T08:14:20.961Z,75.84
2023-04-02T08:16:53.013Z,76.51
2023-04-02T08:19:21.990Z,76.17
2023-04-02T08:21:51.664Z,76.00
2023-04-02T08:24:19.871Z,75.51
2023-04-02T08:26:49.973Z,75.08
2023-04-02T08:29:17.830Z,75.11
2023-04-02T08:31:46.160Z,75.71
2023-04-02T08:34:14.067Z,74.90
2023-04-02T08:36:45.045Z,75.23
2023-04-02T08:39:13.465Z,75.59
2023-04-02T08:41:56.324Z,75.19
2023-04-02T08:45:21.285Z,74.57
2023-04-02T08:47:56.539Z,75.06
2023-04-02T08:50:33.431Z,74.73
2023-04-02T08:53:06.566Z,74.68
2023-04-02T08:55:47.823Z,73.94
2023-04-02T08:58:33.137Z,74.10
2023-04-02T09:01:05.698Z,73.90
2023-04-02T09:03:42.769Z,73.22
2023-04-02T09:06:18.281Z,73.29
2023-04-02T09:08:50.159Z,71.80
2023-04-02T09:11:51.749Z,72.66
2023-04-02T09:14:27.365Z,72.42
2023-04-02T09:17:01.982Z,72.01
2023-04-02T09:19:38.848Z,72.32
2023-04-02T09:22:29.409Z,72.47
2023-04-02T09:25:04.670Z,71.89
2023-04-02T09:27:36.420Z,72.05
2023-04-02T09:30:08.205Z,71.40
2023-04-02T09:32:51.071Z,70.83
2023-04-02T09:35:26.886Z,70.74
2023-04-02T09:38:10.238Z,71.05
2023-04-02T09:41:02.025Z,70.57
2023-04-02T09:43:38.397Z,71.15
2023-04-02T09:46:23.324Z,71.26
2023-04-02T09:48:58.538Z,70.85
2023-04-02T09:51:31.748Z,71.15
2023-04-02T09:54:02.914Z,70.90
2023-04-02T09:56:36.589Z,70.89
2023-04-02T09:59:17.208Z,70.81
2023-04-02T10:01:50.548Z,70.42
2023-04-02T10:04:44.264Z,70.28
2023-04-02T10:07:41.391Z,69.79
2023-04-02T10:10:33.793Z,69.95
2023-04-02T10:13:24.981Z,68.77
2023-04-02T10:16:05.806Z,68.56
2023-04-02T10:18:49.477Z,68.11
2023-04-02T10:21:27.330Z,68.35
2023-04-02T10:23:59.238Z,68.89
2023-04-02T10:27:02.039Z,68.52
2023-04-02T10:29:37.120Z,69.23
2023-04-02T10:32:22.922Z,68.64
2023-04-02T10:35:03.621Z,68.32
2023-04-02T10:38:01.349Z,69.08
2023-04-02T10:40:46.496Z,69.29
2023-04-02T10:43:47.910Z,68.17
2023-04-02T10:46:30.303Z,68.30
2023-04-02T10:49:16.807Z,68.14
2023-04-02T10:51:47.401Z,67.39
2023-04-02T10:54:41.277Z,67.32
2023-04-02T10:57:19.536Z,66.98
2023-04-02T11:00:10.413Z,67.50
2023-04-02T11:03:15.802Z,68.00
2023-04-02T11:05:50.256Z,67.95
2023-04-02T11:08:41.987Z,68.47
2023-04-02T11:11:27.439Z,67.38
2023-04-02T11:13:57.997Z,66.85
2023-04-02T11:16:27.492Z,66.21
2023-04-02T11:19:17.309Z,66.89
2023-04-02T11:22:03.726Z,66.28
2023-04-02T11:24:45.856Z,66.83
2023-04-02T11:27:36.540Z,66.78
2023-04-02T11:30:26.198Z,67.11
2023-04-02T11:32:55.145Z,67.08
2023-04-02T11:35:30.640Z,67.21
2023-04-02T11:38:12.114Z,67.05
2023-04-02T11:40:58.146Z,66.31
2023-04-02T11:43:35.519Z,66.53
2023-04-02T11:46:29.254Z,66.52
2023-04-02T11:49:37.268Z,66.25
2023-04-02T11:52:36.601Z,65.74
2023-04-02T11:55:24.346Z,65.47
2023-04-02T11:58:06.927Z,65.14
2023-04-02T12:01:02.368Z,64.77
2023-04-02T12:04:15.399Z,64.74
2023-04-02T12:06:47.052Z,63.85
2023-04-02T12:09:31.464Z,64.02
2023-04-02T12:12:15.596Z,64.53
2023-04-02T12:14:48.745Z,64.65
2023-04-02T12:17:29.963Z,64.12
2023-04-02T12:20:08.113Z,64.18
2023-04-02T12:22:45.937Z,64.05
2023-04-02T12:25:40.099Z,63.02
2023-04-02T12:28:11.412Z,63.39
2023-04-02T12:30:40.333Z,63.60
2023-04-02T12:33:20.441Z,63.43
2023-04-02T12:35:54.716Z,63.44
2023-04-02T12:38:34.547Z,62.67
2023-04-02T12:41:18.571Z,62.46
2023-04-02T12:43:46.397Z,62.08
2023-04-02T12:46:14.847Z,61.91
2023-04-02T12:48:42.783Z,62.13
2023-04-02T12:51:11.040Z,62.42
2023-04-02T12:53:41.145Z,62.50
2023-04-02T12:56:22.205Z,62.01
2023-04-02T12:58:59.262Z,62.27
2023-04-02T13:01:31.552Z,61.90
2023-04-02T13:04:22.020Z,60.95
2023-04-02T13:06:54.836Z,61.09
2023-04-02T13:09:35.758Z,61.77
2023-04-02T13:12:04.094Z,61.46
2023-04-02T13:14:31.942Z,61.60
2023-04-02T13:16:59.825Z,61.97
2023-04-02T13:19:31.401Z,62.23
2023-04-02T13:22:02.745Z,62.37
2023-04-02T13:24:33.058Z,62.73
2023-04-02T13:27:03.508Z,62.83
2023-04-02T13:29:35.500Z,62.33
2023-04-02T13:32:07.735Z,62.45
2023-04-02T13:34:35.894Z,61.37
2023-04-02T13:37:03.746Z,61.79
2023-04-02T13:39:31.522Z,61.97
2023-04-02T13:42:02.683Z,61.89
2023-04-02T13:44:33.836Z,61.65
2023-04-02T13:47:01.813Z,61.56
2023-04-02T13:49:29.989Z,61.23
2023-04-02T13:52:03.128Z,60.22
2023-04-02T13:54:48.765Z,59.31
2023-04-02T13:57:17.508Z,59.10
2023-04-02T13:59:45.507Z,59.03
2023-04-02T14:02:21.639Z,58.70
2023-04-02T14:05:19.346Z,58.41
2023-04-02T14:08:19.068Z,58.06
2023-04-02T14:11:05.622Z,57.95
2023-04-02T14:14:12.977Z,58.48
2023-04-02T14:17:01.074Z,58.45
2023-04-02T14:20:00.351Z,58.58
2023-04-02T14:22:44.860Z,58.26
2023-04-02T14:25:48.584Z,58.13
2023-04-02T14:28:39.168Z,58.22
2023-04-02T14:31:28.684Z,58.14
2023-04-02T14:34:21.186Z,58.39
2023-04-02T14:37:17.083Z,58.55
2023-04-02T14:40:04.085Z,58.88
2023-04-02T14:42:42.952Z,57.38
2023-04-02T14:45:57.032Z,56.98
2023-04-02T14:48:35.044Z,57.33
2023-04-02T14:51:13.100Z,56.33
2023-04-02T14:53:58.069Z,56.27
2023-04-02T14:56:26.537Z,56.27
2023-04-02T14:59:06.147Z,55.29
2023-04-02T15:01:40.736Z,55.01
2023-04-02T15:04:21.975Z,54.35
2023-04-02T15:06:55.390Z,54.56
2023-04-02T15:09:33.352Z,54.04
2023-04-02T15:12:26.510Z,54.14
2023-04-02T15:15:29.708Z,53.07
2023-04-02T15:18:01.650Z,52.48
2023-04-02T15:20:49.271Z,53.61
2023-04-02T15:23:35.650Z,53.03
2023-04-02T15:26:06.537Z,52.64
2023-04-02T15:29:27.721Z,52.66
2023-04-02T15:32:19.168Z,51.97
2023-04-02T15:35:18.846Z,51.20
2023-04-02T15:38:04.884Z,50.89
2023-04-02T15:41:04.434Z,51.57
2023-04-02T15:43:43.776Z,50.34
2023-04-02T15:46:50.416Z,50.90
2023-04-02T15:49:47.224Z,51.18
2023-04-02T15:52:33.387Z,50.12
2023-04-02T15:55:26.423Z,48.16
2023-04-02T15:58:20.832Z,48.11
2023-04-02T16:01:53.943Z,48.27
2023-04-02T16:04:49.884Z,49.03
2023-04-02T16:07:51.760Z,49.51
2023-04-02T16:10:43.426Z,49.40
2023-04-02T16:13:30.675Z,47.71
2023-04-02T16:16:13.391Z,47.48
2023-04-02T16:19:17.178Z,46.88
2023-04-02T16:21:58.799Z,46.85
2023-04-02T16:24:27.161Z,47.77
2023-04-02T16:27:15.010Z,47.37
2023-04-02T16:30:12.460Z,48.04
2023-04-02T16:33:15.958Z,48.08
2023-04-02T16:35:51.189Z,48.97
2023-04-02T16:38:37.477Z,49.70
2023-04-02T16:41:36.716Z,49.43
2023-04-02T16:44:24.307Z,48.91
2023-04-02T16:47:15.861Z,48.71
2023-04-02T16:50:24.246Z,48.67
2023-04-02T16:53:14.979Z,48.38
2023-04-02T16:56:04.152Z,48.09
2023-04-02T16:58:47.282Z,47.32
2023-04-02T17:01:39.702Z,46.47
2023-04-02T17:05:00.196Z,46.77
2023-04-02T17:08:13.643Z,47.81
2023-04-02T17:10:57.622Z,48.28
2023-04-02T17:13:47.097Z,49.17
2023-04-02T17:16:31.042Z,49.80
2023-04-02T17:19:01.423Z,50.38
2023-04-02T17:21:31.069Z,52.12
2023-04-02T17:24:53.820Z,52.66
2023-04-02T17:27:29.890Z,52.95
2023-04-02T17:30:34.189Z,53.41
2023-04-02T17:33:11.323Z,53.39
2023-04-02T17:36:00.222Z,53.24
2023-04-02T17:39:07.759Z,53.20
2023-04-02T17:42:13.184Z,53.81
2023-04-02T17:44:51.783Z,53.19
2023-04-02T17:47:45.032Z,53.44
2023-04-02T17:50:31.576Z,53.93
2023-04-02T17:53:24.583Z,54.24
2023-04-02T17:56:27.617Z,54.61
2023-04-02T17:59:29.283Z,54.76
2023-04-02T18:02:29.548Z,55.14
2023-04-02T18:05:30.944Z,55.83
2023-04-02T18:08:33.969Z,55.93
2023-04-02T18:11:29.988Z,55.04
2023-04-02T18:14:35.548Z,54.68
2023-04-02T18:17:34.493Z,54.95
2023-04-02T18:20:27.806Z,55.08
2023-04-02T18:23:12.062Z,54.83
2023-04-02T18:26:01.802Z,54.65
2023-04-02T18:29:14.924Z,55.09
2023-04-02T18:32:17.171Z,54.92
2023-04-02T18:35:26.760Z,54.91
2023-04-02T18:38:06.802Z,55.25
2023-04-02T18:41:19.410Z,55.32
2023-04-02T18:44:19.837Z,55.61
2023-04-02T18:47:22.423Z,55.85
2023-04-02T18:50:11.015Z,56.21
2023-04-02T18:52:41.074Z,56.78
2023-04-02T18:55:27.824Z,56.34
2023-04-02T18:58:04.034Z,56.30
2023-04-02T19:00:37.980Z,56.32
2023-04-02T19:03:21.064Z,56.53
2023-04-02T19:06:00.996Z,56.66
2023-04-02T19:08:38.107Z,56.94
2023-04-02T19:11:16.403Z,57.03
2023-04-02T19:13:45.081Z,57.11
2023-04-02T19:16:44.359Z,57.10
2023-04-02T19:19:26.488Z,57.74
2023-04-02T19:22:29.384Z,57.80
2023-04-02T19:25:29.777Z,58.24
2023-04-02T19:28:12.644Z,57.87
2023-04-02T19:31:03.316Z,58.19
2023-04-02T19:33:59.375Z,58.33
2023-04-02T19:36:55.164Z,58.47
2023-04-02T19:40:04.665Z,58.70
2023-04-02T19:42:41.230Z,59.25
2023-04-02T19:45:39.407Z,59.41
2023-04-02T19:48:17.548Z,59.69
2023-04-02T19:50:46.788Z,59.74
2023-04-02T19:53:15.580Z,59.72
2023-04-02T19:55:44.553Z,59.78
2023-04-02T19:58:31.520Z,60.00
2023-04-02T20:01:00.753Z,59.91
2023-04-02T20:03:30.206Z,60.36
2023-04-02T20:05:59.595Z,60.37
2023-04-02T20:08:28.290Z,60.16
2023-04-02T20:10:58.613Z,60.18
2023-04-02T20:13:26.507Z,60.56
2023-04-02T20:15:54.643Z,60.60
2023-04-02T20:18:22.540Z,60.96
2023-04-02T20:20:50.486Z,60.75
2023-04-02T20:23:18.503Z,60.88
2023-04-02T20:25:53.353Z,60.66
2023-04-02T20:28:23.259Z,60.50
2023-04-02T20:30:51.681Z,60.40
2023-04-02T20:33:24.980Z,60.84
2023-04-02T20:35:52.965Z,61.06
2023-04-02T20:38:20.756Z,61.11
2023-04-02T20:40:52.869Z,61.47
2023-04-02T20:43:21.465Z,61.88
2023-04-02T20:45:57.382Z,61.94
2023-04-02T20:48:28.046Z,61.80
2023-04-02T20:50:57.178Z,62.16
2023-04-02T20:53:25.613Z,61.95
2023-04-02T20:55:53.848Z,62.09
2023-04-02T20:58:21.668Z,61.93
2023-04-02T21:00:49.431Z,62.16
2023-04-02T21:03:19.658Z,62.47
2023-04-02T21:05:48.073Z,62.34
2023-04-02T21:08:15.940Z,62.53
2023-04-02T21:10:43.711Z,63.00
2023-04-02T21:13:11.512Z,63.10
2023-04-02T21:15:43.090Z,63.16
2023-04-02T21:18:11.229Z,63.36
2023-04-02T21:20:39.010Z,63.64
2023-04-02T21:23:06.854Z,63.72
2023-04-02T21:25:35.329Z,64.00
2023-04-02T21:28:03.901Z,63.97
2023-04-02T21:30:33.000Z,64.35
2023-04-02T21:33:00.844Z,64.73
2023-04-02T21:35:28.684Z,64.70
2023-04-02T21:37:56.503Z,64.97
2023-04-02T21:40:24.312Z,65.27
2023-04-02T21:42:52.865Z,65.37
2023-04-02T21:45:20.803Z,65.70
2023-04-02T21:47:48.678Z,65.55
2023-04-02T21:50:16.587Z,65.78
2023-04-02T21:52:44.331Z,65.87
2023-04-02T21:55:12.145Z,66.19
2023-04-02T21:57:40.125Z,66.12
2023-04-02T22:00:12.220Z,66.60
2023-04-02T22:02:40.380Z,66.48
2023-04-02T22:05:08.674Z,66.82
2023-04-02T22:07:36.511Z,67.54
2023-04-02T22:10:04.657Z,68.05
2023-04-02T22:12:32.516Z,68.06
2023-04-02T22:15:00.449Z,68.50
2023-04-02T22:17:28.412Z,68.96
2023-04-02T22:19:56.235Z,69.30
2023-04-02T22:22:24.156Z,69.09
2023-04-02T22:24:51.921Z,69.59
2023-04-02T22:27:19.721Z,69.78
2023-04-02T22:29:47.552Z,70.32
2023-04-02T22:32:15.330Z,70.33
2023-04-02T22:34:45.606Z,70.76
2023-04-02T22:37:13.588Z,70.80
2023-04-02T22:39:41.359Z,71.09
2023-04-02T22:42:09.131Z,71.05
2023-04-02T22:44:36.981Z,71.42
2023-04-02T22:47:04.994Z,71.38
2023-04-02T22:49:32.762Z,72.15
2023-04-02T22:52:00.540Z,71.82
2023-04-02T22:54:28.282Z,71.94
2023-04-02T22:56:56.110Z,72.14
2023-04-02T22:59:24.080Z,72.07
2023-04-02T23:01:51.970Z,72.29
2023-04-02T23:04:19.750Z,72.86
2023-04-02T23:06:47.837Z,72.93
2023-04-02T23:09:15.696Z,72.97
2023-04-02T23:11:43.528Z,73.18
2023-04-02T23:14:11.550Z,73.32
2023-04-02T23:16:39.326Z,73.41
2023-04-02T23:19:07.085Z,73.76
2023-04-02T23:21:34.915Z,73.63
2023-04-02T23:24:02.749Z,73.69
2023-04-02T23:26:31.358Z,74.12
2023-04-02T23:29:00.854Z,74.09
2023-04-02T23:31:29.154Z,74.44
2023-04-02T23:33:57.615Z,74.11
2023-04-02T23:36:32.412Z,74.54
2023-04-02T23:39:09.188Z,74.82
2023-04-02T23:41:39.808Z,74.57
2023-04-02T23:44:09.597Z,74.64
2023-04-02T23:46:37.712Z,75.02
2023-04-02T23:49:05.754Z,75.05
2023-04-02T23:51:33.596Z,75.35
2023-04-02T23:54:01.409Z,75.75
2023-04-02T23:56:29.248Z,76.01
2023-04-02T23:58:57.034Z,75.75
